Time;durP1;ratioP1;P1;durP2;ratioP2;P2;SDS_P1;SDS_P2;PMS_P1;PMS_P2;Temp;Humidity;BMP_temperature;BMP_pressure;BME280_temperature;BME280_humidity;BME280_pressure;Samples;Min_cycle;Max_cycle;Signal;HPM_P1;HPM_P2
2022/06/18 00:01:34;;;;;;;3.27;2.80;;;19.00;99.90;;;;;;5076904;28;20672;-75
2022/06/18 00:04:10;;;;;;;2.40;2.30;;;19.10;99.90;;;;;;5077456;28;20618;-74
2022/06/18 00:07:17;;;;;;;2.37;2.17;;;19.20;99.90;;;;;;5077637;28;20573;-74
2022/06/18 00:09:50;;;;;;;6.63;2.67;;;19.30;99.90;;;;;;4995915;28;20993;-74
2022/06/18 00:15:24;;;;;;;3.20;2.50;;;19.30;99.90;;;;;;5051868;28;20598;-75
2022/06/18 00:17:51;;;;;;;2.30;2.20;;;19.40;99.90;;;;;;5076989;28;20979;-74
2022/06/18 00:20:20;;;;;;;2.30;2.20;;;19.40;99.90;;;;;;5078074;28;20602;-75
2022/06/18 00:22:50;;;;;;;2.30;2.20;;;19.40;99.90;;;;;;5077493;28;20653;-74
2022/06/18 00:25:29;;;;;;;5.13;2.30;;;19.30;99.90;;;;;;5076830;28;20744;-75
2022/06/18 00:28:10;;;;;;;2.90;2.60;;;19.20;99.90;;;;;;5075459;28;20974;-76
2022/06/18 00:30:38;;;;;;;2.33;2.20;;;19.10;99.90;;;;;;5077235;28;20577;-74
2022/06/18 00:33:05;;;;;;;2.40;2.20;;;19.00;99.90;;;;;;5077071;28;20619;-75
2022/06/18 00:35:33;;;;;;;4.47;2.50;;;19.00;99.90;;;;;;5076387;28;20622;-75
2022/06/18 00:38:03;;;;;;;3.00;2.67;;;19.00;99.90;;;;;;5076293;28;20617;-75
2022/06/18 00:40:36;;;;;;;5.00;2.13;;;18.90;99.90;;;;;;5077406;28;21167;-75
2022/06/18 00:43:06;;;;;;;6.97;2.77;;;18.70;99.90;;;;;;5077185;28;20570;-74
2022/06/18 00:45:33;;;;;;;4.93;2.00;;;18.70;99.90;;;;;;5077160;28;21156;-74
2022/06/18 00:48:13;;;;;;;3.67;2.47;;;18.60;99.90;;;;;;5077335;28;20634;-74
2022/06/18 00:50:59;;;;;;;3.67;2.60;;;18.40;99.90;;;;;;5078003;28;20563;-75
2022/06/18 00:53:49;;;;;;;3.50;2.30;;;18.40;99.90;;;;;;5075337;28;20625;-74
2022/06/18 00:56:21;;;;;;;12.43;2.47;;;18.20;99.90;;;;;;5077027;28;20569;-74
2022/06/18 00:59:01;;;;;;;2.40;2.20;;;18.00;99.90;;;;;;5076982;28;20573;-74
2022/06/18 01:01:35;;;;;;;5.20;1.90;;;17.90;99.90;;;;;;5075395;28;20622;-74
2022/06/18 01:04:25;;;;;;;2.43;2.23;;;17.90;99.90;;;;;;5074529;28;20629;-74
2022/06/18 01:07:14;;;;;;;2.20;2.10;;;17.70;99.90;;;;;;5074433;28;20675;-74
2022/06/18 01:09:40;;;;;;;2.20;2.10;;;17.70;99.90;;;;;;5075231;28;21057;-74
2022/06/18 01:12:09;;;;;;;2.00;1.90;;;17.70;99.90;;;;;;5076525;28;20602;-75
2022/06/18 01:14:36;;;;;;;2.33;1.80;;;17.90;99.90;;;;;;5075489;28;20666;-74
2022/06/18 01:17:04;;;;;;;4.73;2.43;;;17.90;99.90;;;;;;5075159;28;20949;-74
2022/06/18 01:19:34;;;;;;;2.30;2.10;;;17.90;99.90;;;;;;5076412;28;20608;-74
2022/06/18 01:22:21;;;;;;;2.23;2.10;;;18.00;99.90;;;;;;5076610;28;20634;-74
2022/06/18 01:24:48;;;;;;;1.97;1.87;;;17.90;99.90;;;;;;5075537;28;21172;-74
2022/06/18 01:27:15;;;;;;;1.70;1.60;;;18.00;99.90;;;;;;5075784;28;20633;-74
2022/06/18 01:29:41;;;;;;;2.10;1.80;;;17.90;99.90;;;;;;5076196;28;20590;-74
2022/06/18 01:32:11;;;;;;;2.00;1.90;;;17.90;99.90;;;;;;5076041;28;20617;-74
2022/06/18 01:34:38;;;;;;;3.13;1.93;;;17.80;99.90;;;;;;5076654;28;20613;-74
2022/06/18 01:37:05;;;;;;;3.47;2.00;;;17.90;99.90;;;;;;5075717;28;20617;-74
2022/06/18 01:39:36;;;;;;;2.07;1.97;;;18.00;99.90;;;;;;5074846;28;20629;-75
2022/06/18 01:42:31;;;;;;;3.73;2.27;;;18.00;99.90;;;;;;5075143;28;21250;-75
2022/06/18 01:45:04;;;;;;;2.10;1.93;;;18.00;99.90;;;;;;5075026;28;20610;-75
2022/06/18 01:47:42;;;;;;;2.30;2.20;;;18.00;99.90;;;;;;5075267;28;21192;-75
2022/06/18 01:50:23;;;;;;;3.90;2.03;;;17.90;99.90;;;;;;5074758;28;20645;-74
2022/06/18 01:52:55;;;;;;;13.33;2.10;;;17.90;99.90;;;;;;5075648;28;20578;-75
2022/06/18 01:55:27;;;;;;;1.80;1.70;;;17.80;99.90;;;;;;5073596;28;20602;-75
2022/06/18 01:58:01;;;;;;;2.93;2.23;;;17.70;99.90;;;;;;5075252;28;20578;-74
2022/06/18 02:00:29;;;;;;;2.17;1.97;;;17.60;99.90;;;;;;5074414;28;20614;-74
2022/06/18 02:03:00;;;;;;;5.93;2.30;;;17.40;99.90;;;;;;5074945;28;20673;-74
2022/06/18 02:05:27;;;;;;;2.40;2.13;;;17.20;99.90;;;;;;5076553;28;20582;-75
2022/06/18 02:07:54;;;;;;;2.33;1.90;;;16.90;99.90;;;;;;5075884;28;20587;-75
2022/06/18 02:10:29;;;;;;;2.70;1.97;;;16.80;99.90;;;;;;5076129;28;20594;-75
2022/06/18 02:12:58;;;;;;;3.10;2.20;;;16.90;99.90;;;;;;5075281;28;20584;-74
2022/06/18 02:15:30;;;;;;;2.47;1.90;;;17.00;99.90;;;;;;5076213;28;20613;-75
2022/06/18 02:18:01;;;;;;;5.83;2.80;;;17.10;99.90;;;;;;5074537;28;20615;-74
2022/06/18 02:20:30;;;;;;;2.43;2.30;;;17.00;99.90;;;;;;5074042;28;20630;-75
2022/06/18 02:22:58;;;;;;;8.60;2.30;;;17.00;99.90;;;;;;5073357;28;20662;-74
2022/06/18 02:25:27;;;;;;;2.60;1.97;;;17.00;99.90;;;;;;5056757;28;21161;-74
2022/06/18 02:28:00;;;;;;;15.77;2.70;;;17.00;99.90;;;;;;5074529;28;20655;-74
2022/06/18 02:30:31;;;;;;;4.20;2.90;;;16.90;99.90;;;;;;5075332;28;20603;-74
2022/06/18 02:33:28;;;;;;;2.83;2.40;;;16.80;99.90;;;;;;5074313;28;20971;-75
2022/06/18 02:35:57;;;;;;;2.73;2.53;;;16.70;99.90;;;;;;5074642;28;20618;-74
2022/06/18 02:38:23;;;;;;;3.33;2.43;;;16.40;99.90;;;;;;5074236;28;20618;-74
2022/06/18 02:40:50;;;;;;;2.43;2.33;;;16.40;99.90;;;;;;5074363;28;20610;-74
2022/06/18 02:43:19;;;;;;;3.83;1.90;;;16.40;99.90;;;;;;5074059;28;20649;-74
2022/06/18 02:45:51;;;;;;;3.13;2.17;;;16.50;99.90;;;;;;5074703;28;20934;-74
2022/06/18 02:48:19;;;;;;;2.10;2.00;;;16.50;99.90;;;;;;5073792;28;20983;-74
2022/06/18 02:50:46;;;;;;;2.50;2.40;;;16.60;99.90;;;;;;5072358;28;20618;-75
2022/06/18 02:53:13;;;;;;;3.20;2.10;;;16.60;99.90;;;;;;5074176;28;20614;-74
2022/06/18 02:55:44;;;;;;;2.13;2.00;;;16.60;99.90;;;;;;5074158;28;20602;-74
2022/06/18 02:58:19;;;;;;;6.40;2.70;;;16.70;99.90;;;;;;5074563;28;20629;-75
2022/06/18 03:00:53;;;;;;;2.40;2.30;;;16.70;99.90;;;;;;5073960;28;20558;-74
2022/06/18 03:03:23;;;;;;;3.43;1.90;;;16.60;99.90;;;;;;5073794;28;20646;-74
2022/06/18 03:05:52;;;;;;;6.13;2.60;;;16.60;99.90;;;;;;5072376;28;20630;-75
2022/06/18 03:08:23;;;;;;;2.20;2.10;;;16.70;99.90;;;;;;5073731;28;20629;-74
2022/06/18 03:13:36;;;;;;;2.50;2.40;;;16.70;99.90;;;;;;5073696;28;20590;-75
2022/06/18 03:16:04;;;;;;;2.23;2.13;;;16.70;99.90;;;;;;5074090;28;20633;-74
2022/06/18 03:18:32;;;;;;;2.40;2.20;;;16.60;99.90;;;;;;5075113;28;20614;-74
2022/06/18 03:21:33;;;;;;;2.67;2.47;;;16.60;99.90;;;;;;5073401;28;20627;-74
2022/06/18 03:24:00;;;;;;;3.67;2.67;;;16.80;99.90;;;;;;5074570;28;20938;-74
2022/06/18 03:26:27;;;;;;;3.17;2.90;;;16.80;99.90;;;;;;5078318;28;20697;-74
2022/06/18 03:28:54;;;;;;;4.70;2.67;;;16.70;99.90;;;;;;5077766;28;20626;-75
2022/06/18 03:31:20;;;;;;;3.40;2.60;;;16.60;99.90;;;;;;5077983;28;20920;-74
2022/06/18 03:33:47;;;;;;;2.30;2.10;;;16.60;99.90;;;;;;5079574;28;20613;-73
2022/06/18 03:36:17;;;;;;;6.70;3.00;;;16.60;99.90;;;;;;5078960;28;20609;-74
2022/06/18 03:38:44;;;;;;;7.10;3.30;;;16.50;99.90;;;;;;5078298;28;20614;-74
2022/06/18 03:41:13;;;;;;;2.37;2.17;;;16.40;99.90;;;;;;5078883;28;20609;-73
2022/06/18 03:43:39;;;;;;;3.77;2.43;;;16.30;99.90;;;;;;5079156;28;20740;-74
2022/06/18 03:46:09;;;;;;;3.17;2.87;;;16.10;99.90;;;;;;5079190;28;20606;-74
2022/06/18 03:48:45;;;;;;;2.77;2.50;;;16.00;99.90;;;;;;5078616;28;20680;-73
2022/06/18 03:51:12;;;;;;;2.67;2.43;;;16.10;99.90;;;;;;5079241;28;20569;-73
2022/06/18 03:53:40;;;;;;;3.90;2.50;;;16.20;99.90;;;;;;5077172;28;20637;-75
2022/06/18 03:56:10;;;;;;;5.37;3.33;;;16.30;99.90;;;;;;5077121;28;20602;-73
2022/06/18 03:58:38;;;;;;;2.87;2.57;;;16.30;99.90;;;;;;5075375;28;20675;-74
2022/06/18 04:01:04;;;;;;;5.33;2.53;;;16.40;99.90;;;;;;5076734;28;20656;-74
2022/06/18 04:03:31;;;;;;;4.87;2.37;;;16.50;99.90;;;;;;5059230;28;20657;-74
2022/06/18 04:05:57;;;;;;;3.10;2.83;;;16.60;99.90;;;;;;5076533;28;20636;-74
2022/06/18 04:08:24;;;;;;;2.80;2.70;;;16.60;99.90;;;;;;5076791;28;20628;-74
2022/06/18 04:10:51;;;;;;;2.80;2.60;;;16.70;99.90;;;;;;5076685;28;20602;-74
2022/06/18 04:13:17;;;;;;;3.37;2.53;;;16.70;99.90;;;;;;5076589;28;20966;-74
2022/06/18 04:15:45;;;;;;;2.80;2.70;;;16.80;99.90;;;;;;5076915;28;20610;-74
2022/06/18 04:18:15;;;;;;;2.90;2.53;;;16.80;99.90;;;;;;5075590;28;20620;-75
2022/06/18 04:20:41;;;;;;;2.40;2.20;;;16.90;99.90;;;;;;5075836;28;20622;-75
2022/06/18 04:23:10;;;;;;;2.40;2.30;;;17.00;99.90;;;;;;5076846;28;20664;-75
2022/06/18 04:25:36;;;;;;;5.93;2.73;;;17.10;99.90;;;;;;5077460;28;20641;-75
2022/06/18 04:28:03;;;;;;;3.50;3.20;;;17.10;99.90;;;;;;5077473;28;20612;-75
2022/06/18 04:30:32;;;;;;;2.67;2.47;;;17.20;99.90;;;;;;5078249;28;20610;-75
2022/06/18 04:32:58;;;;;;;2.77;2.67;;;17.30;99.90;;;;;;5074899;28;20622;-75
2022/06/18 04:35:25;;;;;;;5.53;3.00;;;17.30;99.90;;;;;;5076154;28;20613;-75
2022/06/18 04:37:51;;;;;;;2.40;2.30;;;17.50;99.90;;;;;;5075836;28;21249;-75
2022/06/18 04:40:22;;;;;;;4.60;2.73;;;17.60;99.90;;;;;;5076615;28;20663;-75
2022/06/18 04:42:49;;;;;;;3.13;2.60;;;17.60;99.90;;;;;;5076708;28;20614;-75
2022/06/18 04:45:15;;;;;;;2.73;2.53;;;17.70;99.90;;;;;;5074977;28;20611;-75
2022/06/18 04:47:42;;;;;;;2.63;2.53;;;17.70;99.90;;;;;;5075797;28;20630;-75
2022/06/18 04:50:17;;;;;;;2.67;2.47;;;17.80;99.90;;;;;;5077031;28;20658;-75
2022/06/18 04:52:43;;;;;;;3.40;2.53;;;17.90;99.90;;;;;;5074771;28;20618;-75
2022/06/18 04:55:11;;;;;;;6.57;2.60;;;18.00;99.90;;;;;;5074766;28;20627;-75
2022/06/18 04:57:37;;;;;;;2.70;2.50;;;18.10;99.90;;;;;;5074311;28;20622;-75
2022/06/18 05:00:07;;;;;;;5.40;4.97;;;18.10;99.90;;;;;;5075724;28;21161;-75
2022/06/18 05:02:35;;;;;;;2.93;2.73;;;18.10;99.90;;;;;;5075332;28;20670;-75
2022/06/18 05:05:04;;;;;;;9.77;3.07;;;18.10;99.90;;;;;;5075654;28;20592;-75
2022/06/18 05:07:31;;;;;;;2.87;2.77;;;18.20;99.90;;;;;;5074601;28;20630;-75
2022/06/18 05:09:57;;;;;;;3.33;3.00;;;18.30;99.90;;;;;;5076364;28;21004;-75
2022/06/18 05:12:24;;;;;;;4.27;3.40;;;18.40;99.90;;;;;;5075711;28;20618;-74
2022/06/18 05:14:51;;;;;;;6.53;3.10;;;18.30;99.90;;;;;;5075675;28;20968;-73
2022/06/18 05:17:25;;;;;;;3.47;3.27;;;18.30;99.90;;;;;;5074964;28;21192;-74
2022/06/18 05:19:52;;;;;;;6.70;3.00;;;18.40;99.90;;;;;;5076506;28;21112;-75
2022/06/18 05:22:19;;;;;;;3.10;2.90;;;18.60;99.90;;;;;;5076307;28;20657;-74
2022/06/18 05:24:46;;;;;;;3.00;2.80;;;18.70;99.90;;;;;;5076038;28;20614;-73
2022/06/18 05:27:26;;;;;;;5.47;3.00;;;18.90;99.90;;;;;;5075873;28;20647;-73
2022/06/18 05:29:54;;;;;;;7.57;4.30;;;19.00;99.90;;;;;;5075949;28;20570;-74
2022/06/18 05:32:20;;;;;;;4.97;3.60;;;19.30;99.90;;;;;;5075252;28;20614;-73
2022/06/18 05:34:47;;;;;;;5.13;3.10;;;19.40;99.90;;;;;;5073973;28;20621;-73
2022/06/18 05:37:17;;;;;;;3.50;2.70;;;19.40;99.90;;;;;;5075111;28;20602;-73
2022/06/18 05:39:44;;;;;;;3.93;3.10;;;19.30;99.90;;;;;;5074170;28;20694;-73
2022/06/18 05:42:10;;;;;;;3.77;3.00;;;19.20;99.90;;;;;;5075366;28;20662;-73
2022/06/18 05:44:37;;;;;;;4.30;3.00;;;19.20;99.90;;;;;;5075150;28;20721;-73
2022/06/18 05:47:34;;;;;;;3.33;3.07;;;19.20;99.90;;;;;;5073555;28;20646;-73
2022/06/18 05:50:03;;;;;;;3.10;2.90;;;19.30;99.90;;;;;;5074072;28;21013;-73
2022/06/18 05:52:30;;;;;;;7.20;3.10;;;19.40;99.90;;;;;;5075010;28;20610;-73
2022/06/18 05:54:57;;;;;;;4.77;2.93;;;19.50;99.90;;;;;;5073724;28;20618;-73
2022/06/18 05:57:24;;;;;;;4.60;2.97;;;19.70;99.90;;;;;;5075165;28;20614;-73
2022/06/18 05:59:51;;;;;;;2.80;2.60;;;19.80;99.90;;;;;;5074670;28;20972;-73
2022/06/18 06:02:20;;;;;;;3.93;3.30;;;19.90;99.90;;;;;;5075282;28;20662;-74
2022/06/18 06:04:46;;;;;;;3.23;3.03;;;20.20;99.90;;;;;;5074325;28;20617;-73
2022/06/18 06:07:14;;;;;;;3.70;3.10;;;20.50;99.90;;;;;;5074446;28;20991;-74
2022/06/18 06:12:26;;;;;;;3.20;2.90;;;20.70;99.90;;;;;;5073967;28;20586;-74
2022/06/18 06:14:52;;;;;;;5.00;3.23;;;20.70;99.90;;;;;;5073971;28;20622;-74
2022/06/18 06:17:22;;;;;;;11.07;3.67;;;20.60;99.90;;;;;;5072445;28;21015;-74
2022/06/18 06:19:49;;;;;;;4.30;3.27;;;20.70;99.90;;;;;;5074095;28;20625;-74
2022/06/18 06:22:15;;;;;;;2.73;2.63;;;21.00;99.90;;;;;;5074839;28;20646;-74
2022/06/18 06:24:42;;;;;;;3.87;3.57;;;21.10;99.90;;;;;;5072833;28;20609;-74
2022/06/18 06:27:10;;;;;;;3.83;3.20;;;21.30;99.90;;;;;;5074084;28;20976;-74
2022/06/18 06:29:37;;;;;;;5.43;3.10;;;21.30;99.90;;;;;;5073974;28;20622;-74
2022/06/18 06:32:04;;;;;;;2.90;2.60;;;21.50;99.90;;;;;;5073849;28;20737;-75
2022/06/18 06:34:30;;;;;;;7.03;3.20;;;21.60;99.90;;;;;;5073773;28;20598;-75
2022/06/18 06:36:57;;;;;;;3.40;2.80;;;21.90;99.90;;;;;;5073994;28;20667;-74
2022/06/18 06:39:23;;;;;;;3.07;2.87;;;22.10;99.90;;;;;;5073854;28;20621;-74
2022/06/18 06:41:50;;;;;;;5.13;2.70;;;22.20;99.90;;;;;;5073671;28;20618;-75
2022/06/18 06:44:16;;;;;;;4.67;2.70;;;22.30;99.90;;;;;;5072108;28;20602;-75
2022/06/18 06:46:42;;;;;;;2.80;2.60;;;22.10;99.90;;;;;;5074134;28;20688;-75
2022/06/18 06:49:09;;;;;;;2.70;2.50;;;22.40;99.90;;;;;;5073861;28;20657;-73
2022/06/18 06:51:38;;;;;;;2.80;2.60;;;22.40;99.90;;;;;;5072796;28;20606;-73
2022/06/18 06:54:05;;;;;;;2.57;2.37;;;22.60;99.90;;;;;;5073793;28;20671;-74
2022/06/18 06:59:16;;;;;;;4.87;3.00;;;23.00;99.90;;;;;;5073276;28;20594;-74
2022/06/18 07:01:43;;;;;;;6.60;3.83;;;23.00;99.90;;;;;;5073599;28;20625;-74
2022/06/18 07:04:11;;;;;;;2.63;2.43;;;23.10;99.90;;;;;;5071916;28;20666;-74
2022/06/18 07:06:39;;;;;;;3.10;2.90;;;23.20;99.90;;;;;;5072490;28;20617;-74
2022/06/18 07:09:07;;;;;;;4.60;2.97;;;23.20;99.90;;;;;;5073948;28;20605;-74
2022/06/18 07:11:35;;;;;;;4.03;3.13;;;23.00;99.90;;;;;;5073442;28;20683;-74
2022/06/18 07:14:01;;;;;;;3.43;3.23;;;23.20;99.90;;;;;;5055674;28;20675;-74
2022/06/18 07:16:28;;;;;;;6.50;2.70;;;23.30;99.90;;;;;;5074081;28;20622;-74
2022/06/18 07:18:55;;;;;;;9.33;3.03;;;23.40;99.90;;;;;;5073571;28;20671;-74
2022/06/18 07:21:22;;;;;;;3.30;2.97;;;23.60;99.90;;;;;;5072054;28;20731;-74
2022/06/18 07:23:48;;;;;;;3.73;2.93;;;23.80;99.90;;;;;;5073033;28;20664;-74
2022/06/18 07:26:19;;;;;;;7.87;2.87;;;24.00;99.90;;;;;;5073388;28;20613;-73
2022/06/18 07:28:46;;;;;;;6.33;3.03;;;24.30;99.90;;;;;;5073574;28;20945;-72
2022/06/18 07:31:25;;;;;;;3.53;3.33;;;24.50;99.90;;;;;;5073545;28;20611;-72
2022/06/18 07:33:52;;;;;;;3.50;3.20;;;24.60;99.90;;;;;;5074534;28;20574;-74
2022/06/18 07:36:19;;;;;;;3.03;2.80;;;24.70;99.90;;;;;;5074048;28;21062;-72
2022/06/18 07:38:45;;;;;;;3.37;3.17;;;24.80;99.90;;;;;;5073344;28;20613;-70
2022/06/18 07:41:16;;;;;;;4.50;3.30;;;24.70;99.90;;;;;;5073080;28;21153;-70
2022/06/18 07:43:49;;;;;;;3.37;3.17;;;24.60;99.90;;;;;;5073005;28;20666;-70
2022/06/18 07:46:15;;;;;;;3.57;3.27;;;24.70;99.90;;;;;;5073783;28;20618;-70
2022/06/18 07:48:43;;;;;;;3.63;3.33;;;24.70;99.90;;;;;;5073117;28;20661;-70
2022/06/18 07:51:11;;;;;;;3.27;3.03;;;24.90;99.90;;;;;;5073035;28;20626;-70
2022/06/18 07:53:38;;;;;;;3.87;3.17;;;25.10;99.90;;;;;;5072784;28;20627;-71
2022/06/18 07:56:05;;;;;;;4.30;3.20;;;25.10;99.90;;;;;;5072621;28;20629;-71
2022/06/18 07:58:32;;;;;;;3.37;3.07;;;25.30;99.90;;;;;;5072711;28;21165;-70
2022/06/18 08:00:58;;;;;;;3.83;3.13;;;25.50;99.90;;;;;;5073427;28;20960;-71
2022/06/18 08:03:25;;;;;;;4.13;3.43;;;25.60;99.90;;;;;;5073019;28;20661;-70
2022/06/18 08:05:53;;;;;;;3.23;3.00;;;25.70;99.90;;;;;;5072840;28;20621;-70
2022/06/18 08:08:20;;;;;;;6.70;3.33;;;25.70;99.90;;;;;;5072560;28;20610;-71
2022/06/18 08:10:50;;;;;;;3.93;3.00;;;26.00;99.90;;;;;;5074244;28;20599;-71
2022/06/18 08:13:16;;;;;;;3.93;3.50;;;26.30;99.90;;;;;;5077083;28;20618;-71
2022/06/18 08:15:43;;;;;;;5.43;3.10;;;26.60;99.90;;;;;;5075392;28;20618;-71
2022/06/18 08:18:09;;;;;;;4.77;3.33;;;26.30;99.90;;;;;;5076658;28;20640;-71
2022/06/18 08:20:37;;;;;;;3.80;3.20;;;26.60;99.90;;;;;;5076548;28;20633;-71
2022/06/18 08:23:06;;;;;;;4.13;3.20;;;26.80;99.90;;;;;;5076235;28;20649;-71
2022/06/18 08:25:35;;;;;;;4.90;4.00;;;26.80;99.90;;;;;;5076502;28;20955;-71
2022/06/18 08:28:04;;;;;;;4.23;3.10;;;26.50;99.90;;;;;;5076908;28;21161;-71
2022/06/18 08:30:31;;;;;;;3.37;3.07;;;26.40;99.90;;;;;;5076617;28;20939;-71
2022/06/18 08:32:58;;;;;;;3.80;3.10;;;26.70;99.90;;;;;;5076555;28;20692;-71
2022/06/18 08:35:24;;;;;;;4.20;3.97;;;27.00;99.90;;;;;;5076217;28;20610;-71
2022/06/18 08:37:52;;;;;;;3.43;3.23;;;27.60;99.90;;;;;;5075799;28;20606;-71
2022/06/18 08:40:37;;;;;;;3.53;3.33;;;27.50;99.90;;;;;;5074438;28;20614;-71
2022/06/18 08:43:15;;;;;;;3.40;3.10;;;27.30;99.90;;;;;;5076073;28;20661;-71
2022/06/18 08:46:06;;;;;;;5.53;3.50;;;27.50;99.90;;;;;;5076116;28;20593;-71
2022/06/18 08:49:07;;;;;;;3.90;3.33;;;28.00;99.90;;;;;;5075359;28;20692;-70
2022/06/18 08:51:59;;;;;;;3.30;3.10;;;28.00;99.90;;;;;;5075951;28;20585;-71
2022/06/18 08:54:42;;;;;;;3.37;2.87;;;27.80;99.90;;;;;;5075785;28;21116;-71
2022/06/18 08:57:22;;;;;;;3.33;3.03;;;27.80;99.90;;;;;;5075205;28;20618;-71
2022/06/18 08:59:58;;;;;;;4.77;3.33;;;28.10;99.90;;;;;;5075849;28;21085;-71
2022/06/18 09:03:03;;;;;;;2.70;2.60;;;28.50;99.90;;;;;;5075697;28;20635;-71
2022/06/18 09:05:49;;;;;;;5.37;3.20;;;28.50;99.90;;;;;;5076063;28;21105;-71
2022/06/18 09:08:26;;;;;;;3.77;3.10;;;28.80;99.90;;;;;;5076323;28;20574;-71
2022/06/18 09:11:11;;;;;;;3.50;3.20;;;28.80;99.90;;;;;;5076315;28;20621;-72
2022/06/18 09:13:54;;;;;;;3.23;3.03;;;28.80;99.90;;;;;;5076613;28;20582;-72
2022/06/18 09:16:31;;;;;;;3.30;3.03;;;28.60;99.90;;;;;;5076647;28;20566;-72
2022/06/18 09:19:03;;;;;;;3.13;2.83;;;28.90;99.90;;;;;;5075887;28;20585;-72
2022/06/18 09:21:45;;;;;;;2.90;2.70;;;28.70;99.90;;;;;;5073985;28;20621;-71
2022/06/18 09:24:19;;;;;;;3.40;2.53;;;29.10;99.90;;;;;;5075511;28;20634;-71
2022/06/18 09:26:53;;;;;;;3.40;3.20;;;29.30;99.90;;;;;;5075843;28;20563;-71
2022/06/18 09:29:44;;;;;;;3.00;2.80;;;29.20;99.90;;;;;;5075374;28;20622;-71
2022/06/18 09:32:17;;;;;;;4.87;3.37;;;29.40;99.90;;;;;;5074160;28;20630;-71
2022/06/18 09:34:55;;;;;;;3.83;3.40;;;29.70;99.90;;;;;;5075346;28;20630;-71
2022/06/18 09:37:50;;;;;;;3.30;3.00;;;29.80;99.90;;;;;;5075353;28;20579;-71
2022/06/18 09:40:50;;;;;;;2.90;2.70;;;29.60;99.90;;;;;;5075026;28;20636;-71
2022/06/18 09:43:37;;;;;;;5.20;2.67;;;29.30;99.90;;;;;;5058019;28;20666;-71
2022/06/18 09:46:24;;;;;;;5.20;2.70;;;29.40;99.90;;;;;;5075280;28;20624;-72
2022/06/18 09:48:52;;;;;;;2.63;2.43;;;29.90;99.90;;;;;;5074839;28;21204;-72
2022/06/18 09:51:30;;;;;;;2.97;2.87;;;30.30;99.90;;;;;;5074535;28;20574;-71
2022/06/18 09:54:03;;;;;;;3.13;2.83;;;30.80;99.90;;;;;;5073970;28;20615;-71
2022/06/18 09:56:43;;;;;;;4.20;2.57;;;30.30;99.90;;;;;;5074738;28;20614;-71
2022/06/18 09:59:28;;;;;;;3.03;2.83;;;30.70;99.90;;;;;;5075221;28;20594;-72
2022/06/18 10:01:56;;;;;;;5.73;2.80;;;30.80;99.90;;;;;;5073109;28;20617;-71
2022/06/18 10:07:15;;;;;;;3.03;2.80;;;30.90;99.90;;;;;;5074388;28;21061;-72
2022/06/18 10:09:53;;;;;;;2.70;2.40;;;30.90;99.90;;;;;;5074589;28;20606;-72
2022/06/18 10:12:22;;;;;;;3.03;2.80;;;31.30;99.90;;;;;;5075030;28;20574;-72
2022/06/18 10:14:58;;;;;;;2.70;2.53;;;31.50;99.90;;;;;;5074555;28;20594;-71
2022/06/18 10:17:33;;;;;;;3.30;2.90;;;31.70;99.90;;;;;;5074530;28;20593;-72
2022/06/18 10:20:30;;;;;;;3.00;2.60;;;31.90;99.90;;;;;;5074088;28;20605;-72
2022/06/18 10:23:24;;;;;;;2.80;2.60;;;31.40;99.90;;;;;;5074590;28;20652;-73
2022/06/18 10:26:05;;;;;;;3.13;2.90;;;31.50;99.90;;;;;;5075074;28;20674;-73
2022/06/18 10:28:31;;;;;;;3.37;3.07;;;31.80;99.90;;;;;;5074887;28;20578;-73
2022/06/18 10:31:23;;;;;;;3.00;2.60;;;32.00;99.90;;;;;;5074658;28;20599;-72
2022/06/18 10:34:15;;;;;;;6.00;2.93;;;31.90;99.90;;;;;;5074268;28;21156;-71
2022/06/18 10:36:47;;;;;;;3.47;3.30;;;32.10;99.90;;;;;;5075367;28;20578;-71
2022/06/18 10:39:38;;;;;;;3.00;2.80;;;32.00;99.90;;;;;;5074823;28;20661;-70
2022/06/18 10:42:24;;;;;;;3.10;2.90;;;32.10;99.90;;;;;;5074738;28;20575;-71
2022/06/18 10:45:01;;;;;;;3.90;2.77;;;32.10;99.90;;;;;;5073501;28;21231;-71
2022/06/18 10:47:37;;;;;;;4.93;2.97;;;32.00;99.90;;;;;;5075171;28;20630;-70
2022/06/18 10:50:24;;;;;;;3.00;2.80;;;32.10;99.90;;;;;;5074714;28;21235;-71
2022/06/18 10:53:04;;;;;;;3.50;3.13;;;32.20;99.90;;;;;;5072894;28;21113;-70
2022/06/18 10:55:31;;;;;;;3.43;3.23;;;32.30;99.90;;;;;;5074527;28;21018;-71
2022/06/18 10:58:11;;;;;;;3.00;2.90;;;32.30;99.90;;;;;;5074557;28;20606;-71
2022/06/18 11:00:38;;;;;;;4.57;3.37;;;32.70;99.90;;;;;;5074302;28;20570;-70
2022/06/18 11:03:18;;;;;;;4.50;3.00;;;33.10;99.90;;;;;;5073874;28;20657;-71
2022/06/18 11:05:46;;;;;;;3.33;3.13;;;32.80;99.90;;;;;;5073887;28;20578;-70
2022/06/18 11:08:38;;;;;;;3.80;3.47;;;33.40;99.90;;;;;;5073968;28;21193;-71
2022/06/18 11:11:09;;;;;;;3.27;2.97;;;32.90;99.90;;;;;;5073766;28;20577;-71
2022/06/18 11:13:39;;;;;;;5.17;3.20;;;32.70;99.90;;;;;;5074001;28;20589;-70
2022/06/18 11:16:28;;;;;;;7.53;3.30;;;33.00;99.90;;;;;;5074203;28;21175;-70
2022/06/18 11:19:06;;;;;;;5.67;3.83;;;33.90;99.90;;;;;;5073565;28;20617;-70
2022/06/18 11:21:35;;;;;;;5.80;3.43;;;33.50;99.90;;;;;;5074212;28;20966;-70
2022/06/18 11:24:27;;;;;;;5.43;3.47;;;33.60;99.90;;;;;;5074653;28;20646;-70
2022/06/18 11:26:57;;;;;;;4.53;3.70;;;34.30;99.90;;;;;;5074457;28;20617;-71
2022/06/18 11:29:32;;;;;;;4.67;3.03;;;35.00;99.90;;;;;;5074176;28;20736;-71
2022/06/18 11:32:02;;;;;;;3.50;3.20;;;35.80;99.90;;;;;;5074974;28;20577;-73
2022/06/18 11:34:44;;;;;;;3.50;3.30;;;36.10;99.90;;;;;;5074892;28;20597;-73
2022/06/18 11:37:22;;;;;;;3.43;3.23;;;36.10;99.90;;;;;;5075129;28;20588;-73
2022/06/18 11:39:58;;;;;;;5.83;2.80;;;35.40;99.90;;;;;;5075224;28;20583;-72
2022/06/18 11:42:38;;;;;;;6.80;3.57;;;36.20;99.90;;;;;;5075070;28;20641;-73
2022/06/18 11:45:47;;;;;;;3.57;3.30;;;35.50;99.90;;;;;;5075427;28;20831;-73
2022/06/18 11:48:30;;;;;;;7.80;3.10;;;36.30;99.90;;;;;;5039085;28;20662;-73
2022/06/18 11:51:08;;;;;;;7.50;4.10;;;36.40;99.90;;;;;;5079353;28;20618;-71
2022/06/18 11:53:50;;;;;;;4.37;3.10;;;36.50;99.90;;;;;;5077592;28;20582;-72
2022/06/18 11:57:04;;;;;;;8.50;3.30;;;36.70;99.90;;;;;;5077918;28;20576;-72
2022/06/18 11:59:52;;;;;;;3.57;3.10;;;36.70;99.90;;;;;;5073925;28;20639;-72
2022/06/18 12:02:27;;;;;;;3.63;3.20;;;36.20;99.90;;;;;;5076475;28;20633;-72
2022/06/18 12:05:16;;;;;;;8.07;3.10;;;35.80;99.90;;;;;;5076257;28;20653;-72
2022/06/18 12:07:51;;;;;;;12.40;11.57;;;36.50;99.90;;;;;;5077360;28;20594;-72
2022/06/18 12:10:18;;;;;;;4.67;3.20;;;37.70;99.90;;;;;;5077255;28;20587;-73
2022/06/18 12:13:06;;;;;;;3.30;3.10;;;38.10;99.90;;;;;;5077165;28;20625;-73
2022/06/18 12:15:40;;;;;;;4.40;3.10;;;37.40;99.90;;;;;;5076899;28;21159;-72
2022/06/18 12:18:38;;;;;;;5.67;3.10;;;37.70;99.90;;;;;;5077079;28;20630;-72
2022/06/18 12:21:29;;;;;;;3.80;3.00;;;38.60;99.90;;;;;;5072136;28;20645;-73
2022/06/18 12:24:16;;;;;;;3.37;3.00;;;38.90;99.90;;;;;;5077111;28;20677;-73
2022/06/18 12:26:59;;;;;;;4.40;3.43;;;39.90;99.90;;;;;;5076892;28;20625;-73
2022/06/18 12:29:58;;;;;;;3.87;3.10;;;39.70;99.90;;;;;;5076824;28;20582;-73
2022/06/18 12:32:41;;;;;;;5.53;3.93;;;39.70;99.90;;;;;;5076660;28;20624;-73
2022/06/18 12:35:18;;;;;;;5.27;2.50;;;40.70;99.90;;;;;;5076594;28;20622;-73
2022/06/18 12:38:14;;;;;;;5.73;2.93;;;40.50;99.90;;;;;;5076299;28;20618;-73
2022/06/18 12:40:43;;;;;;;3.80;3.10;;;40.10;99.90;;;;;;5076243;28;20624;-73
2022/06/18 12:43:32;;;;;;;5.30;2.90;;;39.80;99.90;;;;;;5076863;28;20606;-73
2022/06/18 12:46:02;;;;;;;11.73;3.17;;;40.30;99.90;;;;;;5076700;28;20574;-73
2022/06/18 12:49:03;;;;;;;3.10;2.80;;;41.00;99.90;;;;;;5076903;28;21017;-73
2022/06/18 12:51:49;;;;;;;4.27;3.17;;;39.20;99.90;;;;;;5076335;28;20677;-73
2022/06/18 12:55:03;;;;;;;4.23;2.73;;;38.20;99.90;;;;;;5076013;28;20683;-73
2022/06/18 12:57:35;;;;;;;4.10;3.20;;;38.90;99.90;;;;;;4977315;28;20665;-73
2022/06/18 13:00:36;;;;;;;4.17;3.07;;;38.80;99.90;;;;;;4978341;28;21026;-73
2022/06/18 13:03:03;;;;;;;3.57;3.27;;;38.60;99.90;;;;;;5053813;28;20735;-73
2022/06/18 13:05:43;;;;;;;5.27;2.77;;;39.40;99.90;;;;;;5076958;28;20665;-73
2022/06/18 13:08:30;;;;;;;3.20;3.00;;;40.10;99.90;;;;;;5076051;28;20605;-73
2022/06/18 13:11:17;;;;;;;3.67;2.80;;;40.60;99.90;;;;;;5076584;28;20965;-73
2022/06/18 13:13:50;;;;;;;4.33;3.13;;;39.80;99.90;;;;;;5075679;28;20625;-73
2022/06/18 13:16:36;;;;;;;5.47;3.60;;;40.50;99.90;;;;;;5076332;28;20975;-73
2022/06/18 13:19:13;;;;;;;3.77;3.00;;;39.90;99.90;;;;;;5076027;28;20558;-73
2022/06/18 13:21:40;;;;;;;5.83;3.87;;;40.60;99.90;;;;;;5076056;28;20614;-73
2022/06/18 13:30:08;;;;;;;3.50;3.20;;;41.60;99.90;;;;;;5054592;28;20603;-73
2022/06/18 13:32:58;;;;;;;3.33;3.03;;;41.40;99.90;;;;;;5069742;28;20606;-73
2022/06/18 13:35:40;;;;;;;4.03;3.00;;;41.20;99.90;;;;;;5075252;28;20771;-73
2022/06/18 13:38:47;;;;;;;6.57;3.30;;;40.70;99.90;;;;;;5076553;28;21121;-73
2022/06/18 13:41:33;;;;;;;4.13;3.53;;;41.00;99.90;;;;;;5076689;28;20570;-73